sensor_id;sensor_type;location;lat;lon;timestamp;pressure;altitude;pressure_sealevel;temperature;humidity
22743;BME280;11538;48.884;8.696;2024-03-02T00:00:22;97573.56;;;5.92;100.00
22743;BME280;11538;48.884;8.696;2024-03-02T00:02:50;97570.38;;;5.90;100.00
22743;BME280;11538;48.884;8.696;2024-03-02T00:05:18;97581.25;;;5.84;100.00
22743;BME280;11538;48.884;8.696;2024-03-02T00:07:59;97577.38;;;5.91;100.00
22743;BME280;11538;48.884;8.696;2024-03-02T00:10:40;97579.38;;;5.85;100.00
22743;BME280;11538;48.884;8.696;2024-03-02T00:13:08;97579.56;;;5.75;100.00
22743;BME280;11538;48.884;8.696;2024-03-02T00:18:35;97576.97;;;5.83;100.00
22743;BME280;11538;48.884;8.696;2024-03-02T00:21:03;97573.50;;;5.83;100.00
22743;BME280;11538;48.884;8.696;2024-03-02T00:23:34;97568.72;;;5.80;100.00
22743;BME280;11538;48.884;8.696;2024-03-02T00:26:02;97575.78;;;5.76;100.00
22743;BME280;11538;48.884;8.696;2024-03-02T00:31:06;97567.09;;;5.65;100.00
22743;BME280;11538;48.884;8.696;2024-03-02T00:33:46;97572.09;;;5.71;100.00
22743;BME280;11538;48.884;8.696;2024-03-02T00:36:25;97569.81;;;5.79;100.00
22743;BME280;11538;48.884;8.696;2024-03-02T00:38:54;97567.78;;;5.84;100.00
22743;BME280;11538;48.884;8.696;2024-03-02T00:41:24;97572.09;;;5.85;100.00
22743;BME280;11538;48.884;8.696;2024-03-02T00:44:01;97570.41;;;5.76;100.00
22743;BME280;11538;48.884;8.696;2024-03-02T00:46:42;97570.38;;;5.62;100.00
22743;BME280;11538;48.884;8.696;2024-03-02T00:49:22;97568.50;;;5.62;100.00
22743;BME280;11538;48.884;8.696;2024-03-02T00:51:53;97568.00;;;5.60;100.00
22743;BME280;11538;48.884;8.696;2024-03-02T00:54:24;97563.09;;;5.62;100.00
22743;BME280;11538;48.884;8.696;2024-03-02T00:56:56;97556.63;;;5.63;100.00
22743;BME280;11538;48.884;8.696;2024-03-02T00:59:23;97555.41;;;5.55;100.00
22743;BME280;11538;48.884;8.696;2024-03-02T01:01:51;97553.41;;;5.47;100.00
22743;BME280;11538;48.884;8.696;2024-03-02T01:04:18;97548.63;;;5.44;100.00
22743;BME280;11538;48.884;8.696;2024-03-02T01:06:45;97546.75;;;5.45;100.00
22743;BME280;11538;48.884;8.696;2024-03-02T01:09:13;97555.00;;;5.48;100.00
22743;BME280;11538;48.884;8.696;2024-03-02T01:11:40;97561.09;;;5.54;100.00
22743;BME280;11538;48.884;8.696;2024-03-02T01:14:07;97564.22;;;5.61;100.00
22743;BME280;11538;48.884;8.696;2024-03-02T01:16:34;97560.19;;;5.59;100.00
22743;BME280;11538;48.884;8.696;2024-03-02T01:19:01;97568.41;;;5.67;100.00
22743;BME280;11538;48.884;8.696;2024-03-02T01:21:28;97567.59;;;5.81;100.00
22743;BME280;11538;48.884;8.696;2024-03-02T01:23:55;97568.50;;;5.90;100.00
22743;BME280;11538;48.884;8.696;2024-03-02T01:26:22;97561.13;;;5.82;100.00
22743;BME280;11538;48.884;8.696;2024-03-02T01:28:49;97573.09;;;5.76;100.00
22743;BME280;11538;48.884;8.696;2024-03-02T01:31:16;97570.00;;;5.68;100.00
22743;BME280;11538;48.884;8.696;2024-03-02T01:33:43;97561.59;;;5.56;100.00
22743;BME280;11538;48.884;8.696;2024-03-02T01:36:10;97557.19;;;5.46;100.00
22743;BME280;11538;48.884;8.696;2024-03-02T01:38:36;97562.56;;;5.46;100.00
22743;BME280;11538;48.884;8.696;2024-03-02T01:41:04;97557.59;;;5.39;100.00
22743;BME280;11538;48.884;8.696;2024-03-02T01:43:30;97554.91;;;5.39;100.00
22743;BME280;11538;48.884;8.696;2024-03-02T01:45:58;97552.72;;;5.41;100.00
22743;BME280;11538;48.884;8.696;2024-03-02T01:48:25;97549.44;;;5.45;100.00
22743;BME280;11538;48.884;8.696;2024-03-02T01:50:52;97550.03;;;5.41;100.00
22743;BME280;11538;48.884;8.696;2024-03-02T01:53:19;97557.47;;;5.31;100.00
22743;BME280;11538;48.884;8.696;2024-03-02T01:55:46;97557.75;;;5.29;100.00
22743;BME280;11538;48.884;8.696;2024-03-02T01:58:13;97549.91;;;5.33;100.00
22743;BME280;11538;48.884;8.696;2024-03-02T02:00:40;97557.56;;;5.25;100.00
22743;BME280;11538;48.884;8.696;2024-03-02T02:03:07;97552.75;;;5.22;100.00
22743;BME280;11538;48.884;8.696;2024-03-02T02:05:35;97549.84;;;5.19;100.00
22743;BME280;11538;48.884;8.696;2024-03-02T02:08:02;97544.88;;;5.26;100.00
22743;BME280;11538;48.884;8.696;2024-03-02T02:10:29;97546.06;;;5.20;100.00
22743;BME280;11538;48.884;8.696;2024-03-02T02:12:56;97540.41;;;5.21;100.00
22743;BME280;11538;48.884;8.696;2024-03-02T02:15:28;97540.59;;;5.25;100.00
22743;BME280;11538;48.884;8.696;2024-03-02T02:17:57;97542.44;;;5.30;100.00
22743;BME280;11538;48.884;8.696;2024-03-02T02:20:25;97533.50;;;5.34;100.00
22743;BME280;11538;48.884;8.696;2024-03-02T02:23:05;97527.97;;;5.25;100.00
22743;BME280;11538;48.884;8.696;2024-03-02T02:25:34;97530.88;;;5.29;100.00
22743;BME280;11538;48.884;8.696;2024-03-02T02:28:01;97534.44;;;5.24;100.00
22743;BME280;11538;48.884;8.696;2024-03-02T02:30:31;97524.47;;;5.11;100.00
22743;BME280;11538;48.884;8.696;2024-03-02T02:32:59;97534.66;;;4.95;100.00
22743;BME280;11538;48.884;8.696;2024-03-02T02:35:26;97528.06;;;4.87;100.00
22743;BME280;11538;48.884;8.696;2024-03-02T02:37:55;97514.72;;;4.82;100.00
22743;BME280;11538;48.884;8.696;2024-03-02T02:40:23;97529.16;;;4.86;100.00
22743;BME280;11538;48.884;8.696;2024-03-02T02:42:50;97523.56;;;4.82;100.00
22743;BME280;11538;48.884;8.696;2024-03-02T02:45:19;97510.63;;;4.85;100.00
22743;BME280;11538;48.884;8.696;2024-03-02T02:47:47;97511.16;;;4.87;100.00
22743;BME280;11538;48.884;8.696;2024-03-02T02:50:14;97505.25;;;4.85;100.00
22743;BME280;11538;48.884;8.696;2024-03-02T02:52:42;97501.50;;;4.86;100.00
22743;BME280;11538;48.884;8.696;2024-03-02T02:55:11;97505.25;;;4.85;100.00
22743;BME280;11538;48.884;8.696;2024-03-02T02:57:41;97503.97;;;4.82;100.00
22743;BME280;11538;48.884;8.696;2024-03-02T03:00:15;97500.19;;;4.83;100.00
22743;BME280;11538;48.884;8.696;2024-03-02T03:02:48;97504.75;;;4.82;100.00
22743;BME280;11538;48.884;8.696;2024-03-02T03:05:17;97498.47;;;4.73;100.00
22743;BME280;11538;48.884;8.696;2024-03-02T03:07:45;97508.13;;;4.74;100.00
22743;BME280;11538;48.884;8.696;2024-03-02T03:10:12;97505.94;;;4.76;100.00
22743;BME280;11538;48.884;8.696;2024-03-02T03:12:41;97506.75;;;4.77;100.00
22743;BME280;11538;48.884;8.696;2024-03-02T03:15:10;97504.56;;;4.79;100.00
22743;BME280;11538;48.884;8.696;2024-03-02T03:17:38;97508.03;;;4.79;100.00
22743;BME280;11538;48.884;8.696;2024-03-02T03:20:07;97503.56;;;4.75;100.00
22743;BME280;11538;48.884;8.696;2024-03-02T03:22:37;97509.72;;;4.75;100.00
22743;BME280;11538;48.884;8.696;2024-03-02T03:25:05;97509.72;;;4.75;100.00
22743;BME280;11538;48.884;8.696;2024-03-02T03:27:34;97518.34;;;4.72;100.00
22743;BME280;11538;48.884;8.696;2024-03-02T03:30:00;97498.28;;;4.83;100.00
22743;BME280;11538;48.884;8.696;2024-03-02T03:32:28;97500.53;;;4.95;100.00
22743;BME280;11538;48.884;8.696;2024-03-02T03:34:55;97502.03;;;5.02;100.00
22743;BME280;11538;48.884;8.696;2024-03-02T03:37:21;97497.00;;;5.14;100.00
22743;BME280;11538;48.884;8.696;2024-03-02T03:39:48;97504.88;;;5.24;100.00
22743;BME280;11538;48.884;8.696;2024-03-02T03:42:15;97501.00;;;5.31;100.00
22743;BME280;11538;48.884;8.696;2024-03-02T03:44:42;97502.59;;;5.32;100.00
22743;BME280;11538;48.884;8.696;2024-03-02T03:47:09;97499.50;;;5.24;100.00
22743;BME280;11538;48.884;8.696;2024-03-02T03:49:36;97496.31;;;5.22;100.00
22743;BME280;11538;48.884;8.696;2024-03-02T03:52:03;97504.66;;;5.21;100.00
22743;BME280;11538;48.884;8.696;2024-03-02T03:54:31;97504.47;;;5.17;100.00
22743;BME280;11538;48.884;8.696;2024-03-02T03:56:58;97507.25;;;5.12;100.00
22743;BME280;11538;48.884;8.696;2024-03-02T03:59:24;97496.69;;;5.16;100.00
22743;BME280;11538;48.884;8.696;2024-03-02T04:01:51;97495.50;;;5.22;100.00
22743;BME280;11538;48.884;8.696;2024-03-02T04:04:19;97505.28;;;5.32;100.00
22743;BME280;11538;48.884;8.696;2024-03-02T04:06:46;97507.88;;;5.37;100.00
22743;BME280;11538;48.884;8.696;2024-03-02T04:09:13;97489.56;;;5.39;100.00
22743;BME280;11538;48.884;8.696;2024-03-02T04:11:40;97501.13;;;5.39;100.00
22743;BME280;11538;48.884;8.696;2024-03-02T04:14:07;97495.44;;;5.41;100.00
22743;BME280;11538;48.884;8.696;2024-03-02T04:16:34;97501.63;;;5.41;100.00
22743;BME280;11538;48.884;8.696;2024-03-02T04:19:01;97504.59;;;5.40;100.00
22743;BME280;11538;48.884;8.696;2024-03-02T04:21:28;97500.03;;;5.40;100.00
22743;BME280;11538;48.884;8.696;2024-03-02T04:23:55;97503.81;;;5.39;100.00
22743;BME280;11538;48.884;8.696;2024-03-02T04:26:26;97505.41;;;5.40;100.00
22743;BME280;11538;48.884;8.696;2024-03-02T04:28:53;97499.44;;;5.44;100.00
22743;BME280;11538;48.884;8.696;2024-03-02T04:31:21;97500.72;;;5.46;100.00
22743;BME280;11538;48.884;8.696;2024-03-02T04:33:48;97496.75;;;5.44;100.00
22743;BME280;11538;48.884;8.696;2024-03-02T04:36:15;97504.41;;;5.36;100.00
22743;BME280;11538;48.884;8.696;2024-03-02T04:38:42;97502.81;;;5.35;100.00
22743;BME280;11538;48.884;8.696;2024-03-02T04:41:09;97492.47;;;5.43;100.00
22743;BME280;11538;48.884;8.696;2024-03-02T04:43:36;97500.84;;;5.55;100.00
22743;BME280;11538;48.884;8.696;2024-03-02T04:46:03;97500.66;;;5.65;100.00
22743;BME280;11538;48.884;8.696;2024-03-02T04:48:31;97493.97;;;5.77;100.00
22743;BME280;11538;48.884;8.696;2024-03-02T04:50:58;97493.66;;;5.78;100.00
22743;BME280;11538;48.884;8.696;2024-03-02T04:53:24;97492.94;;;5.86;100.00
22743;BME280;11538;48.884;8.696;2024-03-02T04:55:52;97507.22;;;5.87;100.00
22743;BME280;11538;48.884;8.696;2024-03-02T04:58:22;97508.19;;;5.91;100.00
22743;BME280;11538;48.884;8.696;2024-03-02T05:00:48;97507.59;;;5.94;100.00
22743;BME280;11538;48.884;8.696;2024-03-02T05:03:16;97504.59;;;5.96;100.00
22743;BME280;11538;48.884;8.696;2024-03-02T05:05:43;97509.81;;;5.92;100.00
22743;BME280;11538;48.884;8.696;2024-03-02T05:08:11;97510.59;;;5.93;100.00
22743;BME280;11538;48.884;8.696;2024-03-02T05:10:38;97511.59;;;5.97;100.00
22743;BME280;11538;48.884;8.696;2024-03-02T05:13:05;97509.63;;;6.03;100.00
22743;BME280;11538;48.884;8.696;2024-03-02T05:15:32;97520.09;;;6.04;100.00
22743;BME280;11538;48.884;8.696;2024-03-02T05:18:00;97528.47;;;6.03;100.00
22743;BME280;11538;48.884;8.696;2024-03-02T05:20:29;97523.16;;;5.83;100.00
22743;BME280;11538;48.884;8.696;2024-03-02T05:22:56;97519.97;;;5.67;100.00
22743;BME280;11538;48.884;8.696;2024-03-02T05:25:23;97514.59;;;5.67;100.00
22743;BME280;11538;48.884;8.696;2024-03-02T05:27:49;97530.53;;;5.78;100.00
22743;BME280;11538;48.884;8.696;2024-03-02T05:30:17;97535.91;;;5.78;100.00
22743;BME280;11538;48.884;8.696;2024-03-02T05:32:44;97535.69;;;5.74;100.00
22743;BME280;11538;48.884;8.696;2024-03-02T05:35:10;97534.41;;;5.71;100.00
22743;BME280;11538;48.884;8.696;2024-03-02T05:37:39;97540.97;;;5.51;100.00
22743;BME280;11538;48.884;8.696;2024-03-02T05:40:07;97530.88;;;5.29;100.00
22743;BME280;11538;48.884;8.696;2024-03-02T05:42:34;97533.63;;;5.24;100.00
22743;BME280;11538;48.884;8.696;2024-03-02T05:45:02;97531.03;;;5.19;100.00
22743;BME280;11538;48.884;8.696;2024-03-02T05:47:29;97528.66;;;5.17;100.00
22743;BME280;11538;48.884;8.696;2024-03-02T05:49:56;97530.53;;;5.17;100.00
22743;BME280;11538;48.884;8.696;2024-03-02T05:52:22;97530.44;;;5.22;100.00
22743;BME280;11538;48.884;8.696;2024-03-02T05:54:49;97528.75;;;5.26;100.00
22743;BME280;11538;48.884;8.696;2024-03-02T05:57:16;97530.63;;;5.11;100.00
22743;BME280;11538;48.884;8.696;2024-03-02T05:59:49;97525.22;;;4.97;100.00
22743;BME280;11538;48.884;8.696;2024-03-02T06:02:17;97526.59;;;4.95;100.00
22743;BME280;11538;48.884;8.696;2024-03-02T06:04:43;97527.19;;;4.92;100.00
22743;BME280;11538;48.884;8.696;2024-03-02T06:07:10;97533.13;;;4.89;100.00
22743;BME280;11538;48.884;8.696;2024-03-02T06:09:37;97536.63;;;4.89;100.00
22743;BME280;11538;48.884;8.696;2024-03-02T06:12:05;97526.75;;;4.85;100.00
22743;BME280;11538;48.884;8.696;2024-03-02T06:14:31;97528.50;;;4.75;100.00
22743;BME280;11538;48.884;8.696;2024-03-02T06:16:58;97531.34;;;4.65;100.00
22743;BME280;11538;48.884;8.696;2024-03-02T06:19:26;97529.75;;;4.64;100.00
22743;BME280;11538;48.884;8.696;2024-03-02T06:21:54;97532.09;;;4.71;100.00
22743;BME280;11538;48.884;8.696;2024-03-02T06:24:21;97529.91;;;4.73;100.00
22743;BME280;11538;48.884;8.696;2024-03-02T06:26:48;97540.94;;;4.71;100.00
22743;BME280;11538;48.884;8.696;2024-03-02T06:29:15;97539.25;;;4.75;100.00
22743;BME280;11538;48.884;8.696;2024-03-02T06:31:42;97543.47;;;4.81;100.00
22743;BME280;11538;48.884;8.696;2024-03-02T06:34:09;97530.63;;;4.78;100.00
22743;BME280;11538;48.884;8.696;2024-03-02T06:36:35;97521.25;;;4.76;100.00
22743;BME280;11538;48.884;8.696;2024-03-02T06:39:02;97537.06;;;4.77;100.00
22743;BME280;11538;48.884;8.696;2024-03-02T06:41:31;97534.81;;;4.85;100.00
22743;BME280;11538;48.884;8.696;2024-03-02T06:43:58;97530.44;;;4.89;100.00
22743;BME280;11538;48.884;8.696;2024-03-02T06:46:27;97533.06;;;4.94;100.00
22743;BME280;11538;48.884;8.696;2024-03-02T06:48:54;97537.69;;;5.07;100.00
22743;BME280;11538;48.884;8.696;2024-03-02T06:51:21;97537.13;;;5.24;100.00
22743;BME280;11538;48.884;8.696;2024-03-02T06:53:48;97535.09;;;5.35;100.00
22743;BME280;11538;48.884;8.696;2024-03-02T06:56:14;97541.63;;;5.29;100.00
22743;BME280;11538;48.884;8.696;2024-03-02T06:58:41;97537.41;;;5.23;100.00
22743;BME280;11538;48.884;8.696;2024-03-02T07:01:09;97535.03;;;5.21;100.00
22743;BME280;11538;48.884;8.696;2024-03-02T07:03:36;97537.72;;;5.21;100.00
22743;BME280;11538;48.884;8.696;2024-03-02T07:06:04;97548.06;;;5.14;100.00
22743;BME280;11538;48.884;8.696;2024-03-02T07:08:31;97545.75;;;5.07;100.00
22743;BME280;11538;48.884;8.696;2024-03-02T07:10:58;97554.19;;;5.01;100.00
22743;BME280;11538;48.884;8.696;2024-03-02T07:13:25;97558.34;;;4.93;100.00
22743;BME280;11538;48.884;8.696;2024-03-02T07:15:52;97552.47;;;4.91;100.00
22743;BME280;11538;48.884;8.696;2024-03-02T07:18:37;97555.94;;;4.91;100.00
22743;BME280;11538;48.884;8.696;2024-03-02T07:21:08;97553.84;;;4.88;100.00
22743;BME280;11538;48.884;8.696;2024-03-02T07:23:35;97550.34;;;4.88;100.00
22743;BME280;11538;48.884;8.696;2024-03-02T07:26:02;97554.88;;;4.92;100.00
22743;BME280;11538;48.884;8.696;2024-03-02T07:28:33;97546.56;;;4.89;100.00
22743;BME280;11538;48.884;8.696;2024-03-02T07:31:02;97556.63;;;4.83;100.00
22743;BME280;11538;48.884;8.696;2024-03-02T07:33:30;97548.25;;;4.85;100.00
22743;BME280;11538;48.884;8.696;2024-03-02T07:35:58;97555.94;;;4.91;100.00
22743;BME280;11538;48.884;8.696;2024-03-02T07:38:31;97556.97;;;4.95;100.00
22743;BME280;11538;48.884;8.696;2024-03-02T07:40:59;97556.88;;;5.01;100.00
22743;BME280;11538;48.884;8.696;2024-03-02T07:43:26;97557.06;;;5.04;100.00
22743;BME280;11538;48.884;8.696;2024-03-02T07:45:54;97546.63;;;5.03;100.00
22743;BME280;11538;48.884;8.696;2024-03-02T07:48:21;97548.94;;;5.09;100.00
22743;BME280;11538;48.884;8.696;2024-03-02T07:50:48;97544.19;;;5.20;100.00
22743;BME280;11538;48.884;8.696;2024-03-02T07:53:15;97554.28;;;5.29;100.00
22743;BME280;11538;48.884;8.696;2024-03-02T07:55:42;97549.53;;;5.39;100.00
22743;BME280;11538;48.884;8.696;2024-03-02T07:58:09;97551.53;;;5.48;100.00
22743;BME280;11538;48.884;8.696;2024-03-02T08:00:39;97550.84;;;5.56;100.00
22743;BME280;11538;48.884;8.696;2024-03-02T08:03:07;97550.56;;;5.71;100.00
22743;BME280;11538;48.884;8.696;2024-03-02T08:05:38;97551.06;;;5.88;100.00
22743;BME280;11538;48.884;8.696;2024-03-02T08:08:06;97557.47;;;6.06;100.00
22743;BME280;11538;48.884;8.696;2024-03-02T08:10:32;97551.78;;;6.21;100.00
22743;BME280;11538;48.884;8.696;2024-03-02T08:13:00;97556.13;;;6.45;100.00
22743;BME280;11538;48.884;8.696;2024-03-02T08:15:27;97551.41;;;6.65;100.00
22743;BME280;11538;48.884;8.696;2024-03-02T08:17:54;97555.59;;;6.94;100.00
22743;BME280;11538;48.884;8.696;2024-03-02T08:20:21;97548.47;;;7.21;100.00
22743;BME280;11538;48.884;8.696;2024-03-02T08:22:48;97549.91;;;7.50;100.00
22743;BME280;11538;48.884;8.696;2024-03-02T08:25:16;97555.72;;;7.74;100.00
22743;BME280;11538;48.884;8.696;2024-03-02T08:27:43;97551.25;;;8.01;100.00
22743;BME280;11538;48.884;8.696;2024-03-02T08:30:11;97556.53;;;8.24;100.00
22743;BME280;11538;48.884;8.696;2024-03-02T08:32:38;97547.88;;;8.54;100.00
22743;BME280;11538;48.884;8.696;2024-03-02T08:35:07;97552.97;;;8.90;100.00
22743;BME280;11538;48.884;8.696;2024-03-02T08:37:34;97545.47;;;9.14;100.00
22743;BME280;11538;48.884;8.696;2024-03-02T08:40:01;97541.47;;;9.38;100.00
22743;BME280;11538;48.884;8.696;2024-03-02T08:42:31;97544.41;;;9.62;100.00
22743;BME280;11538;48.884;8.696;2024-03-02T08:44:58;97542.06;;;9.91;100.00
22743;BME280;11538;48.884;8.696;2024-03-02T08:47:25;97545.25;;;10.23;100.00
22743;BME280;11538;48.884;8.696;2024-03-02T08:49:51;97547.38;;;10.47;100.00
22743;BME280;11538;48.884;8.696;2024-03-02T08:52:19;97540.84;;;10.70;100.00
22743;BME280;11538;48.884;8.696;2024-03-02T08:54:45;97544.59;;;10.77;100.00
22743;BME280;11538;48.884;8.696;2024-03-02T08:57:12;97542.41;;;10.92;100.00
22743;BME280;11538;48.884;8.696;2024-03-02T08:59:39;97549.00;;;11.03;100.00
22743;BME280;11538;48.884;8.696;2024-03-02T09:02:06;97544.09;;;11.18;100.00
22743;BME280;11538;48.884;8.696;2024-03-02T09:04:33;97548.56;;;11.35;100.00
22743;BME280;11538;48.884;8.696;2024-03-02T09:07:01;97540.00;;;11.58;100.00
22743;BME280;11538;48.884;8.696;2024-03-02T09:09:28;97535.63;;;11.78;100.00
22743;BME280;11538;48.884;8.696;2024-03-02T09:11:55;97524.78;;;11.90;98.08
22743;BME280;11538;48.884;8.696;2024-03-02T09:14:24;97523.88;;;12.11;96.98
22743;BME280;11538;48.884;8.696;2024-03-02T09:16:52;97531.25;;;12.23;94.76
22743;BME280;11538;48.884;8.696;2024-03-02T09:19:19;97528.50;;;12.35;95.66
22743;BME280;11538;48.884;8.696;2024-03-02T09:21:46;97529.16;;;12.57;98.92
22743;BME280;11538;48.884;8.696;2024-03-02T09:24:13;97534.28;;;12.87;98.27
22743;BME280;11538;48.884;8.696;2024-03-02T09:26:44;97528.09;;;13.02;93.88
22743;BME280;11538;48.884;8.696;2024-03-02T09:29:11;97523.13;;;13.21;94.50
22743;BME280;11538;48.884;8.696;2024-03-02T09:31:42;97530.22;;;13.38;87.16
22743;BME280;11538;48.884;8.696;2024-03-02T09:34:09;97519.72;;;13.52;90.95
22743;BME280;11538;48.884;8.696;2024-03-02T09:36:36;97529.13;;;13.71;90.91
22743;BME280;11538;48.884;8.696;2024-03-02T09:39:03;97530.34;;;13.73;83.60
22743;BME280;11538;48.884;8.696;2024-03-02T09:41:33;97534.47;;;13.83;86.78
22743;BME280;11538;48.884;8.696;2024-03-02T09:44:00;97526.13;;;13.92;84.92
22743;BME280;11538;48.884;8.696;2024-03-02T09:46:28;97525.88;;;13.97;89.13
22743;BME280;11538;48.884;8.696;2024-03-02T09:48:55;97527.78;;;14.13;81.94
22743;BME280;11538;48.884;8.696;2024-03-02T09:51:23;97525.94;;;14.17;85.33
22743;BME280;11538;48.884;8.696;2024-03-02T09:54:16;97521.50;;;14.28;84.65
22743;BME280;11538;48.884;8.696;2024-03-02T09:56:50;97518.34;;;14.26;86.48
22743;BME280;11538;48.884;8.696;2024-03-02T09:59:17;97518.66;;;14.41;84.36
22743;BME280;11538;48.884;8.696;2024-03-02T10:02:01;97521.53;;;14.48;86.61
22743;BME280;11538;48.884;8.696;2024-03-02T10:04:30;97523.72;;;14.58;82.81
22743;BME280;11538;48.884;8.696;2024-03-02T10:07:13;97514.75;;;14.58;79.27
22743;BME280;11538;48.884;8.696;2024-03-02T10:09:43;97508.81;;;14.72;78.96
22743;BME280;11538;48.884;8.696;2024-03-02T10:12:12;97507.91;;;14.84;82.69
22743;BME280;11538;48.884;8.696;2024-03-02T10:14:40;97514.22;;;14.88;77.12
22743;BME280;11538;48.884;8.696;2024-03-02T10:17:13;97520.16;;;14.94;75.24
22743;BME280;11538;48.884;8.696;2024-03-02T10:19:40;97516.38;;;14.98;71.04
22743;BME280;11538;48.884;8.696;2024-03-02T10:22:09;97519.16;;;15.02;72.43
22743;BME280;11538;48.884;8.696;2024-03-02T10:24:42;97511.19;;;15.13;76.70
22743;BME280;11538;48.884;8.696;2024-03-02T10:27:25;97519.94;;;15.22;72.23
22743;BME280;11538;48.884;8.696;2024-03-02T10:29:53;97511.56;;;15.34;70.42
22743;BME280;11538;48.884;8.696;2024-03-02T10:32:22;97507.16;;;15.49;72.62
22743;BME280;11538;48.884;8.696;2024-03-02T10:34:50;97512.06;;;15.63;76.92
22743;BME280;11538;48.884;8.696;2024-03-02T10:37:17;97508.97;;;15.65;70.83
22743;BME280;11538;48.884;8.696;2024-03-02T10:39:46;97502.41;;;15.70;74.42
22743;BME280;11538;48.884;8.696;2024-03-02T10:42:14;97499.19;;;15.64;66.09
22743;BME280;11538;48.884;8.696;2024-03-02T10:44:43;97494.81;;;15.36;67.77
22743;BME280;11538;48.884;8.696;2024-03-02T10:47:13;97500.88;;;15.49;72.38
22743;BME280;11538;48.884;8.696;2024-03-02T10:49:42;97492.81;;;15.79;67.67
22743;BME280;11538;48.884;8.696;2024-03-02T10:52:10;97483.81;;;16.02;71.85
22743;BME280;11538;48.884;8.696;2024-03-02T10:54:38;97489.59;;;16.24;66.14
22743;BME280;11538;48.884;8.696;2024-03-02T10:57:07;97478.47;;;16.40;71.54
22743;BME280;11538;48.884;8.696;2024-03-02T10:59:52;97464.78;;;16.71;72.00
22743;BME280;11538;48.884;8.696;2024-03-02T11:02:21;97469.47;;;16.70;62.08
22743;BME280;11538;48.884;8.696;2024-03-02T11:04:54;97462.50;;;16.76;59.99
22743;BME280;11538;48.884;8.696;2024-03-02T11:07:24;97461.06;;;16.90;61.12
22743;BME280;11538;48.884;8.696;2024-03-02T11:10:00;97463.16;;;17.00;60.36
22743;BME280;11538;48.884;8.696;2024-03-02T11:12:53;97452.78;;;16.83;57.02
22743;BME280;11538;48.884;8.696;2024-03-02T11:15:25;97453.84;;;17.05;52.68
22743;BME280;11538;48.884;8.696;2024-03-02T11:17:55;97456.16;;;17.03;58.00
22743;BME280;11538;48.884;8.696;2024-03-02T11:20:23;97450.94;;;17.28;52.50
22743;BME280;11538;48.884;8.696;2024-03-02T11:22:51;97442.06;;;17.42;53.44
22743;BME280;11538;48.884;8.696;2024-03-02T11:25:27;97443.38;;;17.59;52.99
22743;BME280;11538;48.884;8.696;2024-03-02T11:33:03;97443.22;;;18.56;48.06
22743;BME280;11538;48.884;8.696;2024-03-02T11:35:44;97432.25;;;18.64;46.49
22743;BME280;11538;48.884;8.696;2024-03-02T11:38:14;97420.94;;;18.87;46.38
22743;BME280;11538;48.884;8.696;2024-03-02T11:40:42;97419.06;;;19.24;45.97
22743;BME280;11538;48.884;8.696;2024-03-02T11:43:09;97428.88;;;19.47;43.86
22743;BME280;11538;48.884;8.696;2024-03-02T11:45:38;97430.84;;;20.00;46.16
22743;BME280;11538;48.884;8.696;2024-03-02T11:48:14;97420.50;;;20.41;45.68
22743;BME280;11538;48.884;8.696;2024-03-02T11:50:50;97416.88;;;20.66;42.13
22743;BME280;11538;48.884;8.696;2024-03-02T11:53:21;97418.00;;;20.72;40.77
22743;BME280;11538;48.884;8.696;2024-03-02T11:55:50;97408.13;;;20.85;39.88
22743;BME280;11538;48.884;8.696;2024-03-02T11:58:17;97411.88;;;21.17;39.76
22743;BME280;11538;48.884;8.696;2024-03-02T12:00:44;97401.09;;;21.37;38.79
22743;BME280;11538;48.884;8.696;2024-03-02T12:03:15;97396.19;;;22.01;38.16
22743;BME280;11538;48.884;8.696;2024-03-02T12:05:42;97396.41;;;22.18;38.60
22743;BME280;11538;48.884;8.696;2024-03-02T12:08:12;97386.84;;;21.91;37.34
22743;BME280;11538;48.884;8.696;2024-03-02T12:10:39;97385.19;;;21.56;38.01
22743;BME280;11538;48.884;8.696;2024-03-02T12:13:07;97391.34;;;21.74;37.68
22743;BME280;11538;48.884;8.696;2024-03-02T12:15:38;97387.69;;;21.85;36.95
22743;BME280;11538;48.884;8.696;2024-03-02T12:18:06;97387.50;;;22.03;37.72
22743;BME280;11538;48.884;8.696;2024-03-02T12:20:34;97389.72;;;21.81;37.37
22743;BME280;11538;48.884;8.696;2024-03-02T12:23:04;97388.41;;;22.27;36.55
22743;BME280;11538;48.884;8.696;2024-03-02T12:25:34;97385.19;;;22.32;36.55
22743;BME280;11538;48.884;8.696;2024-03-02T12:28:02;97384.41;;;22.67;36.19
22743;BME280;11538;48.884;8.696;2024-03-02T12:30:35;97377.16;;;23.04;35.92
22743;BME280;11538;48.884;8.696;2024-03-02T12:33:03;97377.59;;;23.54;37.51
22743;BME280;11538;48.884;8.696;2024-03-02T12:35:30;97376.38;;;23.55;34.21
22743;BME280;11538;48.884;8.696;2024-03-02T12:37:58;97376.63;;;23.13;35.04
22743;BME280;11538;48.884;8.696;2024-03-02T12:40:25;97371.44;;;22.63;35.56
22743;BME280;11538;48.884;8.696;2024-03-02T12:42:52;97373.47;;;22.59;35.55
22743;BME280;11538;48.884;8.696;2024-03-02T12:45:20;97360.06;;;22.23;35.81
22743;BME280;11538;48.884;8.696;2024-03-02T12:47:52;97365.34;;;22.76;34.94
22743;BME280;11538;48.884;8.696;2024-03-02T12:50:20;97364.88;;;22.81;35.37
22743;BME280;11538;48.884;8.696;2024-03-02T12:52:54;97356.34;;;22.68;34.93
22743;BME280;11538;48.884;8.696;2024-03-02T12:55:23;97360.09;;;23.09;34.60
22743;BME280;11538;48.884;8.696;2024-03-02T12:57:52;97345.72;;;23.45;34.47
22743;BME280;11538;48.884;8.696;2024-03-02T13:00:21;97345.00;;;23.41;34.61
22743;BME280;11538;48.884;8.696;2024-03-02T13:02:51;97355.22;;;23.17;35.84
22743;BME280;11538;48.884;8.696;2024-03-02T13:05:19;97347.69;;;22.66;35.11
22743;BME280;11538;48.884;8.696;2024-03-02T13:07:48;97351.72;;;22.61;35.14
22743;BME280;11538;48.884;8.696;2024-03-02T13:10:17;97338.28;;;21.98;36.09
22743;BME280;11538;48.884;8.696;2024-03-02T13:12:45;97341.03;;;21.98;36.62
22743;BME280;11538;48.884;8.696;2024-03-02T13:15:13;97341.56;;;22.20;35.99
22743;BME280;11538;48.884;8.696;2024-03-02T13:17:45;97335.53;;;21.94;35.98